Time;durP1;ratioP1;P1;durP2;ratioP2;P2;SDS_P1;SDS_P2;PMS_P1;PMS_P2;Temp;Humidity;BMP_temperature;BMP_pressure;BME280_temperature;BME280_humidity;BME280_pressure;Samples;Min_cycle;Max_cycle;Signal;HPM_P1;HPM_P2
2023/08/15 00:01:44;;;;;;;7.93;3.95;;;;;;;20.06;100.00;101079.19;5281075;28;20040;-69
2023/08/15 00:04:15;;;;;;;8.45;4.10;;;;;;;20.02;100.00;101067.00;5282894;28;20438;-69
2023/08/15 00:06:46;;;;;;;10.35;4.38;;;;;;;19.96;100.00;101064.97;5285986;28;20073;-69
2023/08/15 00:09:18;;;;;;;9.43;4.38;;;;;;;20.05;100.00;101060.38;5282256;28;20082;-69
2023/08/15 00:11:49;;;;;;;10.27;4.60;;;;;;;19.90;100.00;101050.25;5284627;28;20051;-69
2023/08/15 00:14:20;;;;;;;13.10;4.85;;;;;;;19.92;100.00;101052.81;5288391;28;20032;-69
2023/08/15 00:16:52;;;;;;;7.40;4.15;;;;;;;19.79;100.00;101037.13;5276717;28;20055;-69
2023/08/15 00:19:23;;;;;;;8.10;3.97;;;;;;;19.73;100.00;101046.78;5293904;28;20043;-69
2023/08/15 00:21:55;;;;;;;8.25;4.05;;;;;;;19.70;100.00;101055.19;5276925;28;20508;-69
2023/08/15 00:24:26;;;;;;;7.00;3.90;;;;;;;19.65;100.00;101048.59;5283809;28;20819;-69
2023/08/15 00:26:58;;;;;;;7.32;4.00;;;;;;;19.59;100.00;101059.09;5276703;28;20394;-69
2023/08/15 00:29:29;;;;;;;8.32;4.45;;;;;;;19.51;100.00;101069.09;5282233;28;20035;-70
2023/08/15 00:32:00;;;;;;;7.38;4.20;;;;;;;19.47;100.00;101075.88;5287110;28;20124;-69
2023/08/15 00:34:32;;;;;;;9.70;4.60;;;;;;;19.47;100.00;101071.28;5291833;28;20100;-69
2023/08/15 00:37:03;;;;;;;9.75;4.43;;;;;;;19.48;100.00;101070.25;5277127;28;20593;-69
2023/08/15 00:39:34;;;;;;;10.20;4.32;;;;;;;19.40;100.00;101071.13;5282632;28;20028;-69
2023/08/15 00:42:06;;;;;;;8.90;4.70;;;;;;;19.49;100.00;101073.84;5282688;28;20055;-69
2023/08/15 00:44:42;;;;;;;8.00;4.22;;;;;;;19.39;100.00;101077.56;5280529;28;20032;-69
2023/08/15 00:47:14;;;;;;;8.80;4.53;;;;;;;19.35;100.00;101078.91;5279976;28;20024;-69
2023/08/15 00:49:46;;;;;;;10.90;4.50;;;;;;;19.33;100.00;101096.31;5280507;28;20039;-69
2023/08/15 00:52:17;;;;;;;11.35;4.88;;;;;;;19.25;100.00;101099.88;5281031;28;20058;-69
2023/08/15 00:54:50;;;;;;;10.18;4.57;;;;;;;19.19;100.00;101089.72;5281558;28;20338;-69
2023/08/15 00:57:22;;;;;;;9.68;4.28;;;;;;;19.11;100.00;101085.16;5287647;28;20028;-69
2023/08/15 00:59:53;;;;;;;10.38;4.88;;;;;;;19.10;100.00;101088.00;5291754;28;20389;-69
2023/08/15 01:02:25;;;;;;;8.35;4.20;;;;;;;18.99;100.00;101079.22;5288910;28;20674;-69
2023/08/15 01:04:56;;;;;;;8.32;3.90;;;;;;;18.93;100.00;101079.91;5285828;28;20171;-69
2023/08/15 01:07:27;;;;;;;9.98;3.75;;;;;;;18.86;100.00;101075.31;5283040;28;20124;-69
2023/08/15 01:09:59;;;;;;;12.23;4.00;;;;;;;18.78;100.00;101068.00;5282353;28;20389;-69
2023/08/15 01:12:54;;;;;;;9.43;3.90;;;;;;;18.85;100.00;101060.09;5281257;28;20028;-69
2023/08/15 01:15:31;;;;;;;9.20;3.90;;;;;;;18.87;100.00;101067.06;5277769;28;20062;-69
2023/08/15 01:18:10;;;;;;;7.30;3.45;;;;;;;18.77;100.00;101066.31;5283868;28;20115;-70
2023/08/15 01:20:42;;;;;;;9.27;3.80;;;;;;;18.72;100.00;101063.28;5283607;28;20569;-69
2023/08/15 01:23:16;;;;;;;8.02;3.45;;;;;;;18.80;100.00;101066.00;5283374;28;20150;-69
2023/08/15 01:25:49;;;;;;;8.07;3.67;;;;;;;18.68;100.00;101061.88;5284029;28;20024;-69
2023/08/15 01:28:21;;;;;;;11.00;3.90;;;;;;;18.68;100.00;101065.44;5284350;28;20367;-69
2023/08/15 01:31:03;;;;;;;9.38;4.15;;;;;;;18.68;100.00;101061.88;5278344;28;20020;-69
2023/08/15 01:33:39;;;;;;;10.80;3.75;;;;;;;18.64;100.00;101066.81;5281955;28;20024;-69
2023/08/15 01:36:21;;;;;;;9.07;4.13;;;;;;;18.63;100.00;101077.78;5286291;28;20024;-69
2023/08/15 01:38:59;;;;;;;11.20;3.08;;;;;;;18.65;100.00;101089.25;5284022;28;20063;-69
2023/08/15 01:41:37;;;;;;;8.32;3.63;;;;;;;18.60;100.00;101093.31;5291308;28;20030;-70
2023/08/15 01:44:11;;;;;;;8.77;3.88;;;;;;;18.56;100.00;101091.94;5288428;28;21042;-69
2023/08/15 01:46:46;;;;;;;8.55;3.65;;;;;;;18.54;100.00;101093.97;5291432;28;20405;-69
2023/08/15 01:49:18;;;;;;;7.65;3.45;;;;;;;18.52;100.00;101112.16;5288302;28;20024;-69
2023/08/15 01:51:50;;;;;;;9.25;3.15;;;;;;;18.49;100.00;101104.41;5285535;28;20537;-69
2023/08/15 01:54:21;;;;;;;7.95;3.00;;;;;;;18.50;100.00;101103.38;5286832;28;20024;-69
2023/08/15 01:56:53;;;;;;;8.38;3.38;;;;;;;18.49;100.00;101117.91;5286035;28;20474;-69
2023/08/15 01:59:24;;;;;;;10.10;3.22;;;;;;;18.49;100.00;101119.78;5285634;28;20031;-70
2023/08/15 02:01:56;;;;;;;8.43;3.47;;;;;;;18.51;100.00;101121.31;5289030;28;20457;-69
2023/08/15 02:04:27;;;;;;;8.95;2.92;;;;;;;18.52;100.00;101120.28;5287308;28;20024;-69
2023/08/15 02:06:59;;;;;;;11.25;4.15;;;;;;;18.60;100.00;101127.56;5280948;28;20028;-69
2023/08/15 02:09:30;;;;;;;9.45;3.38;;;;;;;18.57;100.00;101134.16;5278175;28;20354;-69
2023/08/15 02:12:01;;;;;;;8.50;3.53;;;;;;;18.53;100.00;101127.38;5287622;28;20598;-69
2023/08/15 02:14:33;;;;;;;9.90;3.33;;;;;;;18.49;100.00;101136.84;5281789;28;20047;-69
2023/08/15 02:17:04;;;;;;;8.00;3.45;;;;;;;18.52;100.00;101143.75;5282992;28;20397;-69
2023/08/15 02:19:36;;;;;;;9.52;3.50;;;;;;;18.47;100.00;101146.97;5286566;28;20057;-69
2023/08/15 02:22:07;;;;;;;9.30;3.92;;;;;;;18.46;100.00;101158.75;5286171;28;20486;-69
2023/08/15 02:24:39;;;;;;;7.63;3.30;;;;;;;18.41;100.00;101161.13;5286213;28;20477;-69
2023/08/15 02:27:10;;;;;;;10.10;3.72;;;;;;;18.39;100.00;101155.03;5283375;28;20027;-69
2023/08/15 02:29:41;;;;;;;10.15;4.03;;;;;;;18.33;100.00;101156.53;5286181;28;20039;-70
2023/08/15 02:32:13;;;;;;;9.40;3.22;;;;;;;18.32;100.00;101153.97;5281806;28;20420;-69
2023/08/15 02:34:44;;;;;;;9.02;3.38;;;;;;;18.32;100.00;101154.81;5281324;28;20060;-70
2023/08/15 02:37:16;;;;;;;10.05;3.80;;;;;;;18.30;100.00;101164.09;5285319;28;20119;-70
2023/08/15 02:39:47;;;;;;;8.60;3.60;;;;;;;18.26;100.00;101160.88;5283002;28;20030;-70
2023/08/15 02:42:19;;;;;;;10.23;3.38;;;;;;;18.25;100.00;101152.91;5281971;28;20034;-69
2023/08/15 02:44:50;;;;;;;9.45;3.65;;;;;;;18.21;100.00;101150.53;5280801;28;20028;-70
2023/08/15 02:47:22;;;;;;;9.05;3.45;;;;;;;18.19;100.00;101149.00;5280802;28;20366;-69
2023/08/15 02:49:53;;;;;;;8.05;3.42;;;;;;;18.13;100.00;101139.69;5287619;28;20069;-69
2023/08/15 02:52:24;;;;;;;7.72;3.50;;;;;;;18.20;100.00;101150.69;5280705;28;20032;-69
2023/08/15 02:54:56;;;;;;;10.95;3.83;;;;;;;18.12;100.00;101153.34;5288693;28;20024;-69
2023/08/15 02:57:27;;;;;;;10.13;3.50;;;;;;;18.07;100.00;101153.81;5282090;28;20082;-69
2023/08/15 02:59:59;;;;;;;11.80;3.97;;;;;;;18.02;100.00;101148.03;5285639;28;20024;-69
2023/08/15 03:02:30;;;;;;;12.85;3.65;;;;;;;18.01;100.00;101149.91;5288946;28;20036;-70
2023/08/15 03:05:01;;;;;;;10.43;3.97;;;;;;;18.08;100.00;101154.66;5288593;28;20057;-70
2023/08/15 03:07:33;;;;;;;10.10;3.72;;;;;;;17.98;100.00;101154.78;5283800;28;20028;-69
2023/08/15 03:10:05;;;;;;;7.63;3.70;;;;;;;17.97;100.00;101161.19;5287751;28;20114;-69
2023/08/15 03:12:36;;;;;;;9.02;4.30;;;;;;;17.88;100.00;101141.38;5285886;28;20046;-69
2023/08/15 03:15:08;;;;;;;9.00;4.00;;;;;;;17.90;100.00;101143.91;5287033;28;20395;-69
2023/08/15 03:17:39;;;;;;;10.60;3.78;;;;;;;17.89;100.00;101143.09;5292727;28;20042;-69
2023/08/15 03:20:12;;;;;;;11.23;4.03;;;;;;;17.88;100.00;101146.78;5285435;28;20533;-69
2023/08/15 03:22:43;;;;;;;9.32;3.92;;;;;;;17.90;100.00;101149.31;5284949;28;20549;-70
2023/08/15 03:25:15;;;;;;;9.07;4.05;;;;;;;17.78;100.00;101144.13;5289971;28;20030;-69
2023/08/15 03:27:46;;;;;;;9.32;3.80;;;;;;;17.78;100.00;101144.13;5288452;28;20028;-69
2023/08/15 03:30:18;;;;;;;11.60;4.22;;;;;;;17.79;100.00;101148.53;5287759;28;20095;-69
2023/08/15 03:32:49;;;;;;;13.57;4.00;;;;;;;17.76;100.00;101145.31;5287610;28;20020;-69
2023/08/15 03:35:20;;;;;;;12.48;4.00;;;;;;;17.74;100.00;101144.63;5289366;28;20024;-69
2023/08/15 03:37:52;;;;;;;11.07;3.80;;;;;;;17.71;100.00;101156.56;5292858;28;20051;-69
2023/08/15 03:40:23;;;;;;;11.73;4.45;;;;;;;17.69;100.00;101160.44;5292414;28;20027;-69
2023/08/15 03:42:55;;;;;;;12.98;4.80;;;;;;;17.67;100.00;101165.97;5288999;28;20390;-69
2023/08/15 03:45:28;;;;;;;8.88;4.20;;;;;;;17.75;100.00;101171.44;5290905;28;20032;-69
2023/08/15 03:47:59;;;;;;;11.00;4.22;;;;;;;17.62;100.00;101174.56;5290584;28;20048;-69
2023/08/15 03:50:32;;;;;;;11.70;4.60;;;;;;;17.55;100.00;101181.56;5295227;28;20046;-70
2023/08/15 03:53:04;;;;;;;9.27;4.55;;;;;;;17.62;100.00;101184.47;5293288;28;20123;-69
2023/08/15 03:55:36;;;;;;;10.50;4.40;;;;;;;17.49;100.00;101184.00;5292820;28;20521;-69
2023/08/15 03:58:07;;;;;;;11.00;4.50;;;;;;;17.63;100.00;101181.63;5292562;28;20677;-69
2023/08/15 04:00:38;;;;;;;10.70;4.70;;;;;;;17.48;100.00;101176.94;5290116;28;20044;-70
2023/08/15 04:03:10;;;;;;;10.30;4.60;;;;;;;17.49;100.00;101184.88;5294316;28;20082;-69
2023/08/15 04:05:46;;;;;;;9.98;4.50;;;;;;;17.38;100.00;101177.03;5292909;28;20482;-69
2023/08/15 04:08:17;;;;;;;9.35;4.85;;;;;;;17.33;100.00;101171.22;5295879;28;20473;-70
2023/08/15 04:10:48;;;;;;;13.30;4.93;;;;;;;17.34;100.00;101170.25;5290722;28;20055;-69
2023/08/15 04:13:20;;;;;;;11.18;5.03;;;;;;;17.33;100.00;101182.84;5289748;28;20107;-70
2023/08/15 04:15:51;;;;;;;10.68;5.28;;;;;;;17.32;100.00;101173.09;5283569;28;20028;-69
2023/08/15 04:18:23;;;;;;;12.10;5.22;;;;;;;17.23;100.00;101155.97;5284264;28;20390;-70
2023/08/15 04:20:54;;;;;;;11.93;5.50;;;;;;;17.19;100.00;101167.22;5283220;28;20439;-69
2023/08/15 04:23:26;;;;;;;11.77;5.90;;;;;;;17.12;100.00;101168.81;5284591;28;20520;-69
2023/08/15 04:25:57;;;;;;;9.90;5.18;;;;;;;17.12;100.00;101166.97;5280930;28;20063;-69
2023/08/15 04:28:29;;;;;;;9.15;5.38;;;;;;;17.11;100.00;101165.28;5282199;28;20477;-69
2023/08/15 04:31:00;;;;;;;13.20;5.43;;;;;;;17.12;100.00;101187.69;5286211;28;20036;-69
2023/08/15 04:33:31;;;;;;;10.98;5.82;;;;;;;17.12;100.00;101176.91;5285024;28;20028;-69
2023/08/15 04:36:03;;;;;;;11.20;5.30;;;;;;;17.05;100.00;101185.63;5289800;28;20012;-69
2023/08/15 04:38:34;;;;;;;11.82;5.80;;;;;;;17.07;100.00;101187.28;5290745;28;20081;-69
2023/08/15 04:41:06;;;;;;;11.38;5.13;;;;;;;17.14;100.00;101191.09;5285570;28;20036;-69
2023/08/15 04:43:37;;;;;;;14.68;6.25;;;;;;;17.06;100.00;101194.53;5290186;28;20059;-69
2023/08/15 04:46:08;;;;;;;10.73;5.70;;;;;;;17.09;100.00;101204.19;5288761;28;20040;-69
2023/08/15 04:48:40;;;;;;;14.05;5.80;;;;;;;17.03;100.00;101195.69;5289938;28;20111;-69
2023/08/15 04:51:11;;;;;;;12.02;5.47;;;;;;;17.10;100.00;101205.88;5289280;28;20474;-69
2023/08/15 04:53:43;;;;;;;13.75;5.88;;;;;;;16.98;100.00;101210.63;5288952;28;20470;-69
2023/08/15 04:56:14;;;;;;;11.48;5.90;;;;;;;16.97;100.00;101212.50;5291785;28;20107;-69
2023/08/15 04:58:45;;;;;;;12.05;5.00;;;;;;;16.97;100.00;101220.56;5287636;28;20429;-69
2023/08/15 05:01:17;;;;;;;11.23;5.72;;;;;;;17.07;100.00;101227.72;5291703;28;20055;-69
2023/08/15 05:03:48;;;;;;;12.75;4.90;;;;;;;17.08;100.00;101232.13;5288631;28;20031;-69
2023/08/15 05:06:20;;;;;;;10.43;4.65;;;;;;;16.92;100.00;101247.13;5294026;28;20028;-69
2023/08/15 05:08:52;;;;;;;10.98;5.28;;;;;;;17.00;100.00;101247.22;5288260;28;20036;-69
2023/08/15 05:11:23;;;;;;;10.45;5.25;;;;;;;16.96;100.00;101256.59;5288065;28;20534;-69
2023/08/15 05:13:55;;;;;;;11.13;5.20;;;;;;;16.94;100.00;101261.28;5288143;28;20051;-69
2023/08/15 05:16:26;;;;;;;10.65;4.70;;;;;;;17.10;100.00;101266.03;5277810;28;20036;-69
2023/08/15 05:18:57;;;;;;;11.93;5.07;;;;;;;17.07;100.00;101268.19;5287243;28;20024;-69
2023/08/15 05:21:29;;;;;;;12.20;4.68;;;;;;;17.01;100.00;101280.44;5291269;28;20109;-69
2023/08/15 05:24:00;;;;;;;11.00;4.95;;;;;;;16.97;100.00;101282.56;5290212;28;20032;-69
2023/08/15 05:26:32;;;;;;;13.73;5.57;;;;;;;17.10;100.00;101275.97;5281835;28;20385;-69
2023/08/15 05:29:03;;;;;;;12.63;5.72;;;;;;;16.98;100.00;101284.25;5286779;28;20363;-69
2023/08/15 05:31:34;;;;;;;11.40;6.00;;;;;;;17.03;100.00;101289.22;5286987;28;20039;-69
2023/08/15 05:34:06;;;;;;;11.32;5.10;;;;;;;16.98;100.00;101291.50;5283969;28;20760;-69
2023/08/15 05:36:37;;;;;;;11.93;5.75;;;;;;;17.00;100.00;101286.81;5291422;28;20027;-69
2023/08/15 05:39:09;;;;;;;14.27;6.03;;;;;;;17.11;100.00;101278.53;5288095;28;20428;-69
2023/08/15 05:41:40;;;;;;;13.82;6.25;;;;;;;17.10;100.00;101271.44;5286712;28;20449;-69
2023/08/15 05:44:12;;;;;;;13.40;6.35;;;;;;;17.07;100.00;101277.13;5288365;28;20028;-69
2023/08/15 05:46:43;;;;;;;10.23;5.68;;;;;;;17.14;100.00;101266.59;5286144;28;20032;-70
2023/08/15 05:49:14;;;;;;;10.82;5.70;;;;;;;17.10;100.00;101275.97;5289207;28;20047;-69
2023/08/15 05:51:46;;;;;;;13.77;6.43;;;;;;;17.08;100.00;101277.97;5283000;28;20751;-69
2023/08/15 05:54:17;;;;;;;11.13;6.70;;;;;;;17.16;100.00;101288.84;5286582;28;20020;-69
2023/08/15 05:56:48;;;;;;;12.00;6.32;;;;;;;17.20;100.00;101298.34;5284800;28;20047;-69
2023/08/15 05:59:20;;;;;;;11.65;6.70;;;;;;;17.19;100.00;101302.06;5284409;28;20127;-69
2023/08/15 06:01:51;;;;;;;12.10;6.15;;;;;;;17.22;100.00;101312.53;5285160;28;20582;-69
2023/08/15 06:04:23;;;;;;;10.70;6.60;;;;;;;17.29;100.00;101308.22;5285258;28;20031;-69
2023/08/15 06:06:54;;;;;;;12.02;6.85;;;;;;;17.32;100.00;101302.56;5291748;28;20066;-69
2023/08/15 06:09:27;;;;;;;16.00;6.00;;;;;;;17.29;100.00;101299.31;5286308;28;20044;-69
2023/08/15 06:11:59;;;;;;;10.82;6.28;;;;;;;17.34;100.00;101305.09;5283331;28;20036;-69
2023/08/15 06:14:31;;;;;;;14.30;6.68;;;;;;;17.33;100.00;101322.28;5290467;28;20015;-69
2023/08/15 06:17:04;;;;;;;14.63;7.10;;;;;;;17.38;100.00;101325.38;5290172;28;20031;-69
2023/08/15 06:19:35;;;;;;;14.23;6.75;;;;;;;17.39;100.00;101333.31;5289128;28;20102;-69
2023/08/15 06:22:06;;;;;;;14.85;7.20;;;;;;;17.47;100.00;101329.88;5285487;28;20562;-69
2023/08/15 06:24:38;;;;;;;11.75;6.72;;;;;;;17.47;100.00;101327.19;5288184;28;20081;-69
2023/08/15 06:27:09;;;;;;;16.65;7.70;;;;;;;17.49;100.00;101333.28;5283743;28;20032;-69
2023/08/15 06:29:41;;;;;;;14.63;7.47;;;;;;;17.52;100.00;101327.56;5286934;28;20087;-69
2023/08/15 06:32:29;;;;;;;14.35;7.35;;;;;;;17.66;100.00;101341.53;5290848;28;20024;-69
2023/08/15 06:35:03;;;;;;;16.50;7.97;;;;;;;17.57;100.00;101336.06;5285761;28;20563;-69
2023/08/15 06:37:35;;;;;;;17.30;8.32;;;;;;;17.62;100.00;101324.78;5288030;28;20032;-69
2023/08/15 06:40:08;;;;;;;13.55;7.38;;;;;;;17.64;100.00;101334.47;5283393;28;20039;-69
2023/08/15 06:42:40;;;;;;;16.85;8.50;;;;;;;17.75;100.00;101337.94;5282655;28;20038;-69
2023/08/15 06:45:12;;;;;;;14.55;7.68;;;;;;;17.72;100.00;101328.31;5285133;28;20374;-69
2023/08/15 06:47:44;;;;;;;13.88;8.02;;;;;;;17.87;100.00;101336.72;5276278;28;20040;-69
2023/08/15 06:50:15;;;;;;;16.25;7.75;;;;;;;17.87;100.00;101335.88;5279224;28;20416;-69
2023/08/15 06:52:47;;;;;;;17.80;7.65;;;;;;;17.89;100.00;101340.16;5284676;28;20385;-69
2023/08/15 06:55:19;;;;;;;15.32;7.50;;;;;;;17.99;100.00;101340.91;5285125;28;20435;-69
2023/08/15 06:57:50;;;;;;;20.02;8.38;;;;;;;18.12;100.00;101337.84;5282688;28;20032;-69
2023/08/15 07:00:21;;;;;;;14.35;7.35;;;;;;;18.14;100.00;101334.97;5285369;28;20457;-69
2023/08/15 07:02:53;;;;;;;14.68;7.03;;;;;;;18.18;100.00;101331.81;5283179;28;20024;-69
2023/08/15 07:05:24;;;;;;;14.20;6.80;;;;;;;18.33;100.00;101328.53;5286493;28;20391;-69
2023/08/15 07:07:58;;;;;;;15.65;6.50;;;;;;;18.42;100.00;101335.72;5285440;28;21608;-70
2023/08/15 07:10:30;;;;;;;12.32;6.53;;;;;;;18.50;100.00;101343.03;5280996;28;20036;-69
2023/08/15 07:13:02;;;;;;;11.25;6.07;;;;;;;18.54;100.00;101334.47;5284377;28;20032;-69
2023/08/15 07:15:34;;;;;;;12.00;5.28;;;;;;;18.58;100.00;101334.97;5283708;28;20854;-69
2023/08/15 07:18:05;;;;;;;12.63;6.10;;;;;;;18.66;100.00;101334.19;5282076;28;20085;-69
2023/08/15 07:20:36;;;;;;;11.18;5.60;;;;;;;18.76;100.00;101348.47;5283896;28;20053;-69
2023/08/15 07:23:08;;;;;;;9.90;4.57;;;;;;;18.77;100.00;101336.63;5288557;28;20567;-69
2023/08/15 07:25:43;;;;;;;11.73;5.50;;;;;;;18.87;100.00;101350.06;5285227;28;20024;-69
2023/08/15 07:28:14;;;;;;;11.82;4.57;;;;;;;19.00;100.00;101351.38;5285394;28;20073;-69
2023/08/15 07:30:48;;;;;;;10.25;5.20;;;;;;;19.17;100.00;101354.13;5290186;28;20424;-70
2023/08/15 07:33:19;;;;;;;13.32;5.10;;;;;;;19.18;100.00;101353.97;5287491;28;20047;-69
2023/08/15 07:35:51;;;;;;;15.20;5.95;;;;;;;19.30;100.00;101354.53;5285675;28;20056;-69
2023/08/15 07:38:22;;;;;;;11.07;4.50;;;;;;;19.40;100.00;101362.53;5288409;28;20024;-70
2023/08/15 07:40:54;;;;;;;10.52;3.92;;;;;;;19.50;100.00;101371.38;5283203;28;20532;-69
2023/08/15 07:43:25;;;;;;;12.18;4.25;;;;;;;19.55;100.00;101368.19;5284163;28;20032;-70
2023/08/15 07:45:56;;;;;;;11.68;4.00;;;;;;;19.59;100.00;101369.53;5290455;28;20112;-69
2023/08/15 07:48:29;;;;;;;9.07;4.15;;;;;;;19.55;100.00;101360.91;5283619;28;20035;-69
2023/08/15 07:51:00;;;;;;;9.15;4.32;;;;;;;19.66;100.00;101370.59;5290073;28;20107;-69
2023/08/15 07:53:32;;;;;;;10.50;3.95;;;;;;;19.64;100.00;101366.38;5286942;28;20016;-69
2023/08/15 07:56:03;;;;;;;8.80;3.50;;;;;;;19.81;100.00;101361.84;5290361;28;20024;-70
2023/08/15 07:58:35;;;;;;;9.38;3.22;;;;;;;19.81;100.00;101367.25;5290408;28;20032;-69
2023/08/15 08:01:08;;;;;;;11.30;3.78;;;;;;;19.90;100.00;101371.69;5284916;28;20048;-69
2023/08/15 08:03:42;;;;;;;10.80;3.88;;;;;;;19.91;100.00;101368.00;5282227;28;20028;-69
2023/08/15 08:06:13;;;;;;;8.02;3.60;;;;;;;20.00;100.00;101371.53;5285602;28;20032;-69
2023/08/15 08:08:45;;;;;;;9.90;3.58;;;;;;;20.13;100.00;101372.75;5288175;28;20404;-69
2023/08/15 08:11:16;;;;;;;7.85;3.45;;;;;;;20.10;100.00;101369.53;5286696;28;20036;-69
2023/08/15 08:13:48;;;;;;;10.50;3.60;;;;;;;20.21;100.00;101361.06;5285573;28;20477;-69
2023/08/15 08:16:19;;;;;;;10.25;3.25;;;;;;;20.31;100.00;101363.63;5294802;28;20464;-70
2023/08/15 08:18:51;;;;;;;9.75;4.03;;;;;;;20.34;100.00;101366.00;5290220;28;20406;-69
2023/08/15 08:21:22;;;;;;;9.70;4.03;;;;;;;20.35;100.00;101370.41;5286280;28;20391;-70
2023/08/15 08:23:54;;;;;;;7.72;3.40;;;;;;;20.45;100.00;101367.53;5287551;28;20027;-70
2023/08/15 08:26:25;;;;;;;8.77;3.35;;;;;;;20.52;100.00;101376.69;5286646;28;20364;-70
2023/08/15 08:28:57;;;;;;;10.77;3.92;;;;;;;20.62;100.00;101365.69;5285375;28;20032;-69
2023/08/15 08:31:28;;;;;;;9.57;3.40;;;;;;;20.62;100.00;101371.13;5283434;28;20027;-69
2023/08/15 08:33:59;;;;;;;7.47;3.20;;;;;;;20.67;100.00;101375.03;5282983;28;20043;-69
2023/08/15 08:36:31;;;;;;;11.57;3.97;;;;;;;20.69;100.00;101372.09;5289536;28;20044;-69
2023/08/15 08:39:03;;;;;;;8.95;3.47;;;;;;;20.78;100.00;101372.97;5291255;28;20169;-69
2023/08/15 08:41:35;;;;;;;10.48;3.42;;;;;;;20.75;100.00;101366.03;5283791;28;20024;-69
2023/08/15 08:44:09;;;;;;;8.80;3.17;;;;;;;20.72;100.00;101366.34;5282787;28;20105;-70
2023/08/15 08:46:42;;;;;;;11.15;3.35;;;;;;;20.74;100.00;101378.72;5280602;28;20028;-70
2023/08/15 08:49:15;;;;;;;11.10;3.00;;;;;;;20.79;100.00;101378.22;5285567;28;20036;-69
2023/08/15 08:51:47;;;;;;;7.00;2.72;;;;;;;20.81;100.00;101372.63;5283391;28;20034;-69
2023/08/15 08:54:19;;;;;;;7.35;2.92;;;;;;;21.02;100.00;101372.91;5285413;28;20024;-69
2023/08/15 08:56:55;;;;;;;8.73;2.85;;;;;;;21.08;100.00;101376.81;5283941;28;20094;-69
2023/08/15 08:59:28;;;;;;;9.23;3.33;;;;;;;21.23;100.00;101385.91;5283211;28;22083;-69
2023/08/15 09:02:00;;;;;;;8.93;3.30;;;;;;;21.43;100.00;101380.09;5291824;28;20109;-69
2023/08/15 09:04:31;;;;;;;8.35;3.00;;;;;;;21.61;100.00;101382.56;5288342;28;20028;-69
2023/08/15 09:07:02;;;;;;;8.65;3.08;;;;;;;21.72;100.00;101382.19;5283321;28;20541;-70
2023/08/15 09:09:34;;;;;;;10.18;3.60;;;;;;;21.73;100.00;101378.44;5282218;28;20031;-72
2023/08/15 09:12:06;;;;;;;8.90;3.20;;;;;;;21.79;100.00;101380.44;5283594;28;20036;-69
2023/08/15 09:14:40;;;;;;;10.15;3.35;;;;;;;21.76;100.00;101379.97;5283659;28;20028;-69
2023/08/15 09:17:12;;;;;;;10.85;3.67;;;;;;;21.79;100.00;101379.63;5282682;28;20595;-69
2023/08/15 09:19:43;;;;;;;10.18;3.00;;;;;;;21.81;100.00;101386.56;5289665;28;20029;-69
2023/08/15 09:22:22;;;;;;;7.57;2.75;;;;;;;21.85;100.00;101382.44;5291383;28;20032;-69
2023/08/15 09:24:53;;;;;;;9.65;2.55;;;;;;;21.89;100.00;101391.09;5290884;28;20077;-69
2023/08/15 09:27:25;;;;;;;10.02;3.10;;;;;;;21.82;100.00;101395.53;5283984;28;20032;-69
2023/08/15 09:29:56;;;;;;;6.55;2.35;;;;;;;21.84;100.00;101394.34;5293229;28;20032;-70
2023/08/15 09:32:30;;;;;;;7.55;2.47;;;;;;;21.91;100.00;101395.31;5290243;28;20485;-70
2023/08/15 09:35:01;;;;;;;11.68;3.00;;;;;;;21.97;100.00;101403.78;5287699;28;20020;-69
2023/08/15 09:37:33;;;;;;;7.07;2.65;;;;;;;22.02;100.00;101396.78;5293746;28;20081;-69
2023/08/15 09:40:06;;;;;;;11.80;3.05;;;;;;;22.10;100.00;101394.00;5281131;28;20083;-69
2023/08/15 09:42:37;;;;;;;8.35;3.15;;;;;;;22.14;100.00;101391.78;5286547;28;20113;-69
2023/08/15 09:45:11;;;;;;;10.90;2.60;;;;;;;22.18;100.00;101398.53;5294807;28;20101;-69
2023/08/15 09:47:43;;;;;;;;;;;;;;;22.39;100.00;101397.06;5286676;28;20036;-70
2023/08/15 09:50:16;;;;;;;10.25;2.80;;;;;;;22.41;100.00;101395.03;5284571;28;19923;-70
2023/08/15 09:52:47;;;;;;;7.75;2.53;;;;;;;22.56;100.00;101392.34;5289061;28;20028;-70
2023/08/15 09:55:19;;;;;;;7.80;2.70;;;;;;;22.58;100.00;101402.00;5283564;28;20043;-70
2023/08/15 09:57:50;;;;;;;8.32;2.88;;;;;;;22.68;100.00;101399.03;5285799;28;20040;-69
2023/08/15 10:00:22;;;;;;;7.80;2.60;;;;;;;22.76;100.00;101398.94;5291903;28;20053;-69
2023/08/15 10:03:09;;;;;;;7.90;2.25;;;;;;;22.80;100.00;101413.91;5287541;28;20035;-70
2023/08/15 10:05:45;;;;;;;6.78;2.20;;;;;;;22.68;100.00;101412.63;5284112;28;20032;-69
2023/08/15 10:08:19;;;;;;;7.95;2.30;;;;;;;22.73;100.00;101421.09;5279373;28;20277;-70
2023/08/15 10:10:52;;;;;;;11.48;2.72;;;;;;;22.66;100.00;101425.56;5292613;28;20077;-70
2023/08/15 10:13:31;;;;;;;7.38;2.33;;;;;;;22.73;100.00;101426.53;5288230;28;20032;-70
2023/08/15 10:16:05;;;;;;;6.50;2.30;;;;;;;22.69;100.00;101423.34;5291669;28;20038;-69
2023/08/15 10:18:37;;;;;;;8.40;2.10;;;;;;;22.65;100.00;101426.63;5279346;28;20035;-70
2023/08/15 10:21:08;;;;;;;7.32;2.40;;;;;;;22.60;100.00;101435.31;5281445;28;21340;-69
2023/08/15 10:23:40;;;;;;;12.38;2.70;;;;;;;22.64;100.00;101424.91;5280248;28;20600;-69
2023/08/15 10:26:12;;;;;;;8.45;2.42;;;;;;;22.65;100.00;101427.47;5274635;28;20024;-69
2023/08/15 10:28:46;;;;;;;8.63;2.60;;;;;;;22.66;100.00;101428.28;5281812;28;20331;-70
2023/08/15 10:31:37;;;;;;;8.07;2.25;;;;;;;22.73;100.00;101434.69;5280254;28;20032;-69
2023/08/15 10:34:10;;;;;;;9.50;2.20;;;;;;;22.64;100.00;101430.34;5284306;28;20044;-68
2023/08/15 10:36:42;;;;;;;7.57;2.20;;;;;;;22.66;100.00;101431.03;5275938;28;20031;-68
2023/08/15 10:39:14;;;;;;;8.55;2.65;;;;;;;22.64;100.00;101438.53;5276150;28;20584;-69
2023/08/15 10:41:46;;;;;;;7.13;2.50;;;;;;;22.62;100.00;101440.56;5279564;28;20024;-69
2023/08/15 10:44:18;;;;;;;7.75;2.35;;;;;;;22.75;100.00;101442.69;5281562;28;20493;-69
2023/08/15 10:46:49;;;;;;;7.05;2.17;;;;;;;22.89;100.00;101437.25;5289696;28;20103;-69
2023/08/15 10:49:23;;;;;;;6.65;2.38;;;;;;;23.19;100.00;101440.09;5281948;28;20481;-69
2023/08/15 10:51:58;;;;;;;5.63;1.95;;;;;;;23.41;100.00;101427.41;5286073;28;20083;-69
2023/08/15 10:54:29;;;;;;;7.05;2.22;;;;;;;23.62;100.00;101426.63;5294146;28;20021;-69
2023/08/15 10:57:01;;;;;;;6.97;1.90;;;;;;;23.69;100.00;101430.31;5287768;28;20078;-69
2023/08/15 10:59:35;;;;;;;5.80;2.28;;;;;;;23.78;100.00;101431.09;5281347;28;20020;-69
2023/08/15 11:02:07;;;;;;;5.68;2.13;;;;;;;23.92;100.00;101431.25;5289832;28;20437;-69
2023/08/15 11:04:38;;;;;;;5.88;2.00;;;;;;;24.10;100.00;101428.09;5281210;28;20039;-69
2023/08/15 11:07:10;;;;;;;7.10;1.90;;;;;;;24.21;100.00;101419.41;5282297;28;20060;-69
2023/08/15 11:09:42;;;;;;;6.80;2.15;;;;;;;24.27;100.00;101440.44;5289298;28;20081;-69
2023/08/15 11:12:13;;;;;;;7.18;2.33;;;;;;;24.19;100.00;101424.22;5282805;28;20031;-69
2023/08/15 11:14:51;;;;;;;5.32;1.90;;;;;;;24.23;100.00;101418.16;5284552;28;20031;-69
2023/08/15 11:17:23;;;;;;;6.72;2.10;;;;;;;24.19;100.00;101427.78;5284287;28;20352;-70
2023/08/15 11:19:54;;;;;;;6.38;2.53;;;;;;;24.31;100.00;101432.72;5281170;28;20035;-69
2023/08/15 11:22:25;;;;;;;5.88;1.63;;;;;;;24.44;100.00;101430.13;5279176;28;20512;-69
2023/08/15 11:24:57;;;;;;;7.50;2.13;;;;;;;24.41;100.00;101425.06;5282062;28;20402;-69
2023/08/15 11:27:28;;;;;;;5.13;2.00;;;;;;;24.45;100.00;101440.84;5282913;28;20046;-69
2023/08/15 11:30:00;;;;;;;5.57;2.13;;;;;;;24.40;100.00;101429.66;5280927;28;20028;-69
2023/08/15 11:32:31;;;;;;;5.57;1.92;;;;;;;24.38;100.00;101431.75;5278292;28;20032;-69
2023/08/15 11:35:03;;;;;;;9.90;2.47;;;;;;;24.31;100.00;101435.44;5283149;28;20086;-70
2023/08/15 11:37:35;;;;;;;7.22;2.10;;;;;;;24.26;100.00;101433.31;5284175;28;20438;-69